Molokai Airport Kaunakakai US
ICAO: PHMK
IATA:
Category: Medium
Scheduled Services:

Elevation: 454 ft
TransAlt. 18000 ft.

Airport Communications:
ATIS:128.2
HONOLULU CNTR:124.1
CTAF:125.7
GND:121.9
HONOLULU RDO:116.1
TWR:125.7

PHMK Zoom In..

Runways:

(A) RW 05 length 4494 ft width 100 ft
---- / hdg 49

(B) RW 17 length 3118 ft width 100 ft
---- / hdg 169

(C) RW 23 length 4494 ft width 100 ft
---- / hdg 229

(D) RW 35 length 3118 ft width 100 ft
---- / hdg 349

Location; PHMK
Day. 04 / Time. 15.54 Zulu
* Altimeter: 30.07
* Temperature: 24° c. 75.2°f.
* Wind from: VRB° Speed 06 kn.
Dewpoint: 20° c.
Visibility: 10 Statute Miles.
Clouds: Few 1000 ft.
Clouds: Broken 1500 ft.
Clouds: Overcast 2500 ft.

PHMK 041554Z VRB06KT 10SM FEW010 BKN015 OVC025 24/20 A3007 RMK AO2 SLP183 T02390200 $

Going to: --> -->


Wind From VRB°
Speed 06 kn.

 
 
jpsmedia worldairports.se 2020   terms of use